Time;durP1;ratioP1;P1;durP2;ratioP2;P2;SDS_P1;SDS_P2;PMS_P1;PMS_P2;Temp;Humidity;BMP_temperature;BMP_pressure;BME280_temperature;BME280_humidity;BME280_pressure;Samples;Min_cycle;Max_cycle;Signal;HPM_P1;HPM_P2
2022/10/31 00:00:01;;;;;;;0.10;0.10;;;;;;;13.74;71.14;102113.03;5047000;28;20061;-79
2022/10/31 00:02:27;;;;;;;0.10;0.10;;;;;;;13.75;71.23;102120.09;5046196;28;20032;-80
2022/10/31 00:04:53;;;;;;;0.10;0.10;;;;;;;13.75;71.21;102117.44;5047170;28;20040;-79
2022/10/31 00:07:19;;;;;;;0.32;0.32;;;;;;;13.75;71.04;102116.56;5047615;28;20072;-80
2022/10/31 00:09:45;;;;;;;0.10;0.10;;;;;;;13.74;71.39;102110.38;5037561;28;20092;-80
2022/10/31 00:12:11;;;;;;;0.10;0.10;;;;;;;13.74;71.29;102114.81;5035030;28;20041;-80
2022/10/31 00:14:37;;;;;;;0.10;0.10;;;;;;;13.72;71.08;102111.28;5033393;28;20021;-79
2022/10/31 00:17:03;;;;;;;0.40;0.40;;;;;;;13.72;71.13;102113.94;5032456;28;20029;-80
2022/10/31 00:19:29;;;;;;;0.10;0.10;;;;;;;13.71;71.23;102114.88;5034210;28;20152;-79
2022/10/31 00:21:56;;;;;;;0.10;0.10;;;;;;;13.71;71.26;102114.88;5029320;28;20554;-80
2022/10/31 00:24:22;;;;;;;0.10;0.10;;;;;;;13.68;71.25;102110.47;5036253;28;20028;-80
2022/10/31 00:26:48;;;;;;;0.10;0.10;;;;;;;13.68;71.33;102109.56;5034081;28;20049;-79
2022/10/31 00:29:14;;;;;;;0.10;0.10;;;;;;;13.67;71.07;102118.44;5031892;28;20033;-79
2022/10/31 00:31:40;;;;;;;0.10;0.10;;;;;;;13.67;71.42;102123.75;5039339;28;20041;-80
2022/10/31 00:34:06;;;;;;;0.30;0.30;;;;;;;13.66;71.28;102122.91;5034766;28;20566;-79
2022/10/31 00:36:32;;;;;;;0.10;0.10;;;;;;;13.63;71.57;102130.03;5037652;28;20074;-80
2022/10/31 00:38:59;;;;;;;0.10;0.10;;;;;;;13.61;71.44;102134.50;5037196;28;20409;-79
2022/10/31 00:41:25;;;;;;;0.28;0.28;;;;;;;13.59;71.07;102134.53;5031698;28;20021;-79
2022/10/31 00:43:51;;;;;;;0.20;0.20;;;;;;;13.55;71.04;102125.69;5033185;28;20352;-79
2022/10/31 00:46:17;;;;;;;0.43;0.43;;;;;;;13.53;71.23;102137.25;5033600;28;20112;-79
2022/10/31 00:48:43;;;;;;;0.10;0.10;;;;;;;13.51;71.50;102131.97;5035092;28;20033;-80
2022/10/31 00:51:10;;;;;;;0.10;0.10;;;;;;;13.48;72.51;102139.09;5033576;28;20048;-80
2022/10/31 00:53:36;;;;;;;0.10;0.10;;;;;;;13.48;71.66;102139.09;5032584;28;20091;-80
2022/10/31 00:56:03;;;;;;;0.63;0.63;;;;;;;13.45;72.17;102140.00;5035291;28;20034;-80
2022/10/31 00:58:29;;;;;;;0.10;0.10;;;;;;;13.45;71.92;102133.81;5029795;28;20716;-80
2022/10/31 01:00:55;;;;;;;0.20;0.20;;;;;;;13.42;72.19;102135.59;5033836;28;20497;-80
2022/10/31 01:03:23;;;;;;;0.15;0.15;;;;;;;13.41;72.41;102132.97;5032263;28;20033;-80
2022/10/31 01:05:58;;;;;;;0.10;0.10;;;;;;;13.45;71.45;102126.69;5030860;28;20375;-80
2022/10/31 01:08:25;;;;;;;0.20;0.20;;;;;;;13.43;71.57;102117.84;5036062;28;20022;-80
2022/10/31 01:11:08;;;;;;;0.10;0.10;;;;;;;13.45;71.57;102102.75;5032869;28;20052;-80
2022/10/31 01:13:34;;;;;;;0.10;0.10;;;;;;;13.41;71.84;102103.69;5033310;28;20041;-80
2022/10/31 01:16:02;;;;;;;0.10;0.10;;;;;;;13.39;71.94;102110.78;5032008;28;20123;-79
2022/10/31 01:18:28;;;;;;;0.10;0.10;;;;;;;13.34;71.79;102109.94;5032787;28;20399;-80
2022/10/31 01:21:05;;;;;;;0.10;0.10;;;;;;;13.33;71.42;102113.50;5033019;28;20444;-79
2022/10/31 01:23:31;;;;;;;0.10;0.10;;;;;;;13.25;71.51;102102.94;5031636;28;20048;-80
2022/10/31 01:26:06;;;;;;;0.10;0.10;;;;;;;13.23;71.34;102107.38;5035489;28;20459;-79
2022/10/31 01:28:34;;;;;;;0.10;0.10;;;;;;;13.18;71.22;102103.91;5036182;28;20037;-79
2022/10/31 01:31:02;;;;;;;0.50;0.50;;;;;;;13.12;71.01;102102.16;5030408;28;20413;-79
2022/10/31 01:33:28;;;;;;;0.25;0.25;;;;;;;13.08;71.51;102108.44;5033732;28;20029;-79
2022/10/31 01:35:54;;;;;;;0.10;0.10;;;;;;;13.05;71.50;102103.16;5033145;28;20435;-80
2022/10/31 01:38:20;;;;;;;0.17;0.17;;;;;;;12.95;71.38;102108.53;5032608;28;20025;-80
2022/10/31 01:40:46;;;;;;;0.10;0.10;;;;;;;12.95;71.28;102097.03;5036255;28;20033;-80
2022/10/31 01:43:14;;;;;;;0.10;0.10;;;;;;;12.88;71.58;102095.31;5031452;28;20044;-79
2022/10/31 01:45:44;;;;;;;0.10;0.10;;;;;;;12.84;71.49;102098.91;5031717;28;20123;-79
2022/10/31 01:48:17;;;;;;;0.10;0.10;;;;;;;12.83;71.34;102102.47;5033934;28;20043;-79
2022/10/31 01:50:47;;;;;;;0.20;0.20;;;;;;;12.79;71.23;102096.28;5029754;28;20040;-80
2022/10/31 01:53:15;;;;;;;0.10;0.10;;;;;;;12.76;71.22;102096.31;5033848;28;20029;-79
2022/10/31 01:55:44;;;;;;;0.10;0.10;;;;;;;12.73;70.96;102102.53;5032306;28;20040;-79
2022/10/31 01:58:23;;;;;;;0.10;0.10;;;;;;;12.76;70.74;102101.63;5028083;28;20029;-79
2022/10/31 02:00:55;;;;;;;0.10;0.10;;;;;;;12.72;70.84;102094.59;5030083;28;20075;-79
2022/10/31 02:03:23;;;;;;;0.20;0.20;;;;;;;12.69;70.92;102091.97;5034418;28;20029;-79
2022/10/31 02:05:52;;;;;;;0.10;0.10;;;;;;;12.66;71.57;102089.31;5029682;28;20072;-79
2022/10/31 02:08:36;;;;;;;0.10;0.10;;;;;;;12.68;71.39;102084.88;5033197;28;20021;-79
2022/10/31 02:11:02;;;;;;;0.00;0.00;;;;;;;12.64;71.22;102091.13;5033730;28;20056;-80
2022/10/31 02:13:29;;;;;;;0.10;0.10;;;;;;;12.62;71.46;102093.78;5028292;28;20152;-79
2022/10/31 02:15:58;;;;;;;0.10;0.10;;;;;;;12.61;71.15;102082.28;5031490;28;20030;-79
2022/10/31 02:18:27;;;;;;;0.10;0.10;;;;;;;12.61;71.24;102086.69;5033064;28;20421;-80
2022/10/31 02:21:33;;;;;;;0.10;0.10;;;;;;;12.66;71.37;102084.00;5025743;28;20515;-79
2022/10/31 02:26:59;;;;;;;0.20;0.20;;;;;;;12.62;71.01;102096.44;5063218;28;20426;-79
2022/10/31 02:29:55;;;;;;;0.10;0.10;;;;;;;12.60;71.45;102098.25;5059795;28;20104;-79
2022/10/31 02:35:11;;;;;;;0.10;0.10;;;;;;;12.46;70.91;102095.66;5108136;27;20405;-79
2022/10/31 02:40:43;;;;;;;0.20;0.20;;;;;;;12.40;71.01;102093.06;5049298;28;22245;-79
2022/10/31 02:43:20;;;;;;;0.10;0.10;;;;;;;12.38;71.54;102097.53;5050475;28;20033;-79
2022/10/31 02:46:13;;;;;;;0.30;0.30;;;;;;;12.38;71.04;102090.41;5049051;28;20627;-80
2022/10/31 02:48:42;;;;;;;0.10;0.10;;;;;;;12.29;71.08;102094.03;5042113;28;20029;-79
2022/10/31 02:51:11;;;;;;;0.15;0.15;;;;;;;12.25;71.20;102099.38;5046456;28;20076;-79
2022/10/31 02:53:37;;;;;;;0.10;0.10;;;;;;;12.23;71.13;102096.72;5047784;28;20116;-79
2022/10/31 02:56:15;;;;;;;0.20;0.20;;;;;;;12.23;71.37;102095.88;5043589;28;20384;-79
2022/10/31 02:58:53;;;;;;;0.20;0.20;;;;;;;12.22;71.15;102097.63;5042074;28;20669;-80
2022/10/31 03:01:46;;;;;;;0.10;0.10;;;;;;;12.21;71.12;102098.53;5041686;28;20021;-79
2022/10/31 03:12:29;;;;;;;0.97;0.97;;;;;;;12.17;71.46;102095.91;5086509;27;1185251;-79
2022/10/31 03:15:25;;;;;;;0.10;0.10;;;;;;;12.19;71.20;102095.00;5095139;28;20032;-80
2022/10/31 03:18:05;;;;;;;0.10;0.10;;;;;;;12.16;71.58;102096.78;5079929;28;20111;-79
2022/10/31 03:20:39;;;;;;;0.15;0.15;;;;;;;12.14;71.38;102094.16;5087910;28;20016;-79
2022/10/31 03:23:10;;;;;;;0.10;0.10;;;;;;;12.14;71.96;102096.81;5082450;28;20024;-80
2022/10/31 03:25:38;;;;;;;0.10;0.10;;;;;;;12.14;71.52;102096.81;5087675;28;20396;-79
2022/10/31 03:28:07;;;;;;;0.10;0.10;;;;;;;12.15;71.85;102101.22;5085026;28;20111;-79
2022/10/31 03:30:36;;;;;;;0.10;0.10;;;;;;;12.16;71.72;102100.31;5087322;28;20140;-79
2022/10/31 03:33:06;;;;;;;0.10;0.10;;;;;;;12.17;71.80;102099.44;5080837;28;20125;-79
2022/10/31 03:35:35;;;;;;;0.20;0.20;;;;;;;12.16;71.91;102099.44;5079147;28;20040;-79
2022/10/31 03:38:03;;;;;;;0.10;0.10;;;;;;;12.14;71.33;102091.50;5080214;28;20089;-80
2022/10/31 03:40:31;;;;;;;0.10;0.10;;;;;;;12.16;72.21;102096.78;5083433;28;20549;-80
2022/10/31 03:43:03;;;;;;;0.10;0.10;;;;;;;12.18;72.28;102095.00;5076760;28;20033;-79
2022/10/31 03:45:32;;;;;;;0.50;0.50;;;;;;;12.17;71.46;102102.09;5083398;28;20067;-79
2022/10/31 03:47:59;;;;;;;0.77;0.57;;;;;;;12.16;71.68;102100.31;5086220;28;20024;-80
2022/10/31 03:50:34;;;;;;;0.10;0.10;;;;;;;12.17;72.00;102096.78;5085035;28;20032;-79
2022/10/31 03:53:11;;;;;;;0.10;0.10;;;;;;;12.18;72.04;102098.53;5076352;28;20139;-79
2022/10/31 03:56:01;;;;;;;0.20;0.20;;;;;;;12.22;71.83;102094.97;5078903;28;20036;-79
2022/10/31 03:58:33;;;;;;;0.10;0.10;;;;;;;12.16;72.39;102089.69;5084871;28;20051;-79
2022/10/31 04:01:02;;;;;;;0.10;0.10;;;;;;;12.13;71.89;102082.63;5083900;28;20033;-79
2022/10/31 04:03:33;;;;;;;0.10;0.10;;;;;;;12.13;71.79;102084.41;5089638;28;20166;-79
2022/10/31 04:06:05;;;;;;;0.20;0.20;;;;;;;12.11;71.96;102084.44;5088976;28;20035;-79
2022/10/31 04:08:37;;;;;;;0.20;0.20;;;;;;;12.11;71.97;102091.50;5081905;28;20423;-79
2022/10/31 04:11:06;;;;;;;0.20;0.20;;;;;;;12.10;72.31;102084.41;5084892;28;20029;-79
2022/10/31 04:13:36;;;;;;;0.20;0.20;;;;;;;12.12;72.06;102088.84;5088829;28;20039;-79
2022/10/31 04:16:02;;;;;;;0.10;0.10;;;;;;;12.11;71.99;102096.81;5086859;28;20507;-79
2022/10/31 04:18:29;;;;;;;0.10;0.10;;;;;;;12.10;72.14;102090.63;5087514;28;20105;-79
2022/10/31 04:21:10;;;;;;;0.17;0.17;;;;;;;12.14;71.87;102088.84;5083253;28;20495;-79
2022/10/31 04:23:37;;;;;;;0.10;0.10;;;;;;;12.08;72.02;102096.84;5069128;28;20039;-79
2022/10/31 04:26:03;;;;;;;0.10;0.10;;;;;;;12.07;71.96;102092.41;5068990;28;20040;-79
2022/10/31 04:28:29;;;;;;;0.08;0.08;;;;;;;12.07;72.38;102090.63;5069496;28;20033;-79
2022/10/31 04:30:55;;;;;;;0.30;0.30;;;;;;;12.09;71.86;102095.94;5074152;28;20400;-79
2022/10/31 04:33:21;;;;;;;0.95;0.95;;;;;;;12.09;71.91;102094.16;5071120;28;20334;-79
2022/10/31 04:35:47;;;;;;;0.38;0.38;;;;;;;12.09;72.60;102086.19;5071594;28;20028;-79
2022/10/31 04:38:13;;;;;;;0.10;0.10;;;;;;;12.09;72.46;102088.84;5068023;28;20025;-79
2022/10/31 04:40:39;;;;;;;0.52;0.52;;;;;;;12.09;72.47;102090.63;5062308;28;20476;-79
2022/10/31 04:43:06;;;;;;;0.35;0.35;;;;;;;12.09;72.48;102090.63;5062131;28;20108;-79
2022/10/31 04:45:32;;;;;;;0.10;0.10;;;;;;;12.08;72.21;102087.09;5072393;28;20036;-79
2022/10/31 04:47:58;;;;;;;0.13;0.13;;;;;;;12.06;72.74;102085.34;5062021;28;20035;-79
2022/10/31 04:50:24;;;;;;;0.10;0.10;;;;;;;12.02;72.39;102089.78;5070427;28;20025;-79
2022/10/31 04:52:50;;;;;;;0.10;0.10;;;;;;;11.98;71.90;102094.22;5066288;28;20059;-79
2022/10/31 04:55:16;;;;;;;0.20;0.20;;;;;;;11.92;71.66;102086.25;5067341;28;20055;-79
2022/10/31 04:57:43;;;;;;;0.10;0.10;;;;;;;11.88;72.15;102095.13;5063551;28;20087;-79
2022/10/31 05:00:11;;;;;;;0.10;0.10;;;;;;;11.84;71.80;102085.44;5065653;28;20041;-79
2022/10/31 05:02:55;;;;;;;0.20;0.20;;;;;;;11.84;71.91;102093.41;5073526;28;20089;-79
2022/10/31 05:05:26;;;;;;;0.10;0.10;;;;;;;11.76;71.28;102088.13;5068270;28;20054;-79
2022/10/31 05:07:52;;;;;;;0.10;0.10;;;;;;;11.72;71.84;102088.16;5064532;28;20029;-79
2022/10/31 05:10:20;;;;;;;0.20;0.20;;;;;;;11.67;71.48;102085.50;5064327;28;20117;-79
2022/10/31 05:12:49;;;;;;;0.30;0.30;;;;;;;11.63;71.72;102083.75;5072415;28;20028;-79
2022/10/31 05:15:16;;;;;;;0.30;0.30;;;;;;;11.61;71.76;102085.53;5073339;28;20101;-79
2022/10/31 05:17:42;;;;;;;0.10;0.10;;;;;;;11.59;71.63;102082.00;5061960;28;20029;-79
2022/10/31 05:20:09;;;;;;;0.38;0.30;;;;;;;11.56;71.41;102066.97;5067208;28;20032;-79
2022/10/31 05:22:35;;;;;;;0.10;0.10;;;;;;;11.55;71.35;102070.53;5062598;28;20031;-79
2022/10/31 05:25:01;;;;;;;0.10;0.10;;;;;;;11.52;71.96;102070.53;5062886;28;20033;-79
2022/10/31 05:27:27;;;;;;;0.10;0.10;;;;;;;11.49;71.84;102067.91;5064634;28;20047;-79
2022/10/31 05:29:53;;;;;;;0.10;0.10;;;;;;;11.46;71.64;102063.50;5061695;28;20067;-78
2022/10/31 05:32:19;;;;;;;0.55;0.55;;;;;;;11.45;71.71;102066.13;5061014;28;20047;-79
2022/10/31 05:34:45;;;;;;;0.30;0.30;;;;;;;11.44;71.41;102061.72;5060376;28;20037;-79
2022/10/31 05:37:11;;;;;;;0.10;0.10;;;;;;;11.41;71.67;102056.44;5062292;28;20440;-79
2022/10/31 05:39:37;;;;;;;0.10;0.10;;;;;;;11.38;71.46;102062.63;5063857;28;20404;-79
2022/10/31 05:42:04;;;;;;;0.25;0.25;;;;;;;11.37;71.61;102060.00;5060857;28;20480;-79
2022/10/31 05:44:30;;;;;;;0.10;0.10;;;;;;;11.35;71.21;102051.16;5063627;28;20059;-79
2022/10/31 05:46:56;;;;;;;0.10;0.10;;;;;;;11.35;71.49;102059.09;5060956;28;20067;-79
2022/10/31 05:49:22;;;;;;;0.10;0.10;;;;;;;11.33;71.58;102064.44;5061160;28;20041;-79
2022/10/31 05:51:48;;;;;;;0.10;0.10;;;;;;;11.33;71.22;102065.28;5062531;28;20027;-79
2022/10/31 05:54:14;;;;;;;0.10;0.10;;;;;;;11.32;71.17;102062.66;5059559;28;20524;-79
2022/10/31 05:56:41;;;;;;;0.10;0.10;;;;;;;11.32;71.47;102068.84;5064325;28;20044;-79
2022/10/31 05:59:07;;;;;;;0.10;0.10;;;;;;;11.33;71.73;102062.63;5062193;28;20024;-79
2022/10/31 06:01:33;;;;;;;0.10;0.10;;;;;;;11.35;72.05;102061.75;5062629;28;20404;-79
2022/10/31 06:03:59;;;;;;;0.10;0.10;;;;;;;11.37;71.46;102060.00;5061728;28;20296;-79
2022/10/31 06:06:25;;;;;;;0.10;0.10;;;;;;;11.37;72.08;102057.34;5064950;28;20048;-79
2022/10/31 06:08:51;;;;;;;0.10;0.10;;;;;;;11.38;71.61;102061.75;5061410;28;20051;-79
2022/10/31 06:11:17;;;;;;;0.03;0.03;;;;;;;11.39;71.71;102056.44;5065723;28;20021;-79
2022/10/31 06:13:44;;;;;;;0.20;0.20;;;;;;;11.43;72.15;102059.97;5070514;28;20056;-79
2022/10/31 06:16:10;;;;;;;0.10;0.10;;;;;;;11.44;72.05;102061.72;5070993;28;20036;-79
2022/10/31 06:18:36;;;;;;;0.10;0.10;;;;;;;11.46;72.11;102065.25;5068049;28;20039;-79
2022/10/31 06:21:02;;;;;;;0.10;0.10;;;;;;;11.47;71.59;102067.03;5069400;28;20063;-79
2022/10/31 06:23:28;;;;;;;1.02;0.90;;;;;;;11.48;71.90;102068.78;5065910;28;20020;-79
2022/10/31 06:25:55;;;;;;;0.10;0.10;;;;;;;11.47;71.85;102067.03;5061395;28;20040;-79
2022/10/31 06:28:21;;;;;;;0.10;0.10;;;;;;;11.46;72.02;102059.94;5062168;28;20060;-79
2022/10/31 06:30:47;;;;;;;0.30;0.30;;;;;;;11.48;71.90;102069.66;5069431;28;20496;-79
2022/10/31 06:33:13;;;;;;;0.08;0.08;;;;;;;11.49;71.99;102071.44;5068060;28;20028;-79
2022/10/31 06:35:46;;;;;;;0.10;0.10;;;;;;;11.52;71.67;102070.53;5070556;28;20028;-79
2022/10/31 06:38:13;;;;;;;0.20;0.20;;;;;;;11.50;72.14;102072.28;5066332;28;20041;-79
2022/10/31 06:40:39;;;;;;;0.10;0.10;;;;;;;11.51;71.90;102084.69;5068574;28;20530;-79
2022/10/31 06:43:05;;;;;;;2.60;1.42;;;;;;;11.50;72.31;102072.28;5071012;28;20082;-79
2022/10/31 06:45:31;;;;;;;0.32;0.32;;;;;;;11.50;71.81;102069.66;5062589;28;20510;-79
2022/10/31 06:47:57;;;;;;;0.20;0.20;;;;;;;11.52;71.76;102070.53;5068481;28;20106;-79
2022/10/31 06:50:24;;;;;;;0.10;0.10;;;;;;;11.54;71.93;102065.22;5070218;28;20045;-79
2022/10/31 06:52:54;;;;;;;0.20;0.20;;;;;;;11.55;72.56;102065.22;5071772;28;20630;-79
2022/10/31 06:55:22;;;;;;;0.10;0.10;;;;;;;11.56;72.20;102068.75;5064580;28;20094;-79
2022/10/31 06:57:51;;;;;;;0.10;0.10;;;;;;;11.57;72.36;102063.44;5064867;28;20028;-79
2022/10/31 07:00:18;;;;;;;0.10;0.10;;;;;;;11.57;72.00;102073.19;5067539;28;20491;-79
2022/10/31 07:02:52;;;;;;;0.10;0.10;;;;;;;11.57;72.41;102063.44;5069199;28;20484;-79
2022/10/31 07:05:18;;;;;;;0.10;0.10;;;;;;;11.57;72.50;102073.19;5067907;28;20036;-79
2022/10/31 07:07:44;;;;;;;0.10;0.10;;;;;;;11.60;72.28;102079.34;5068654;28;20052;-77
2022/10/31 07:10:10;;;;;;;0.10;0.10;;;;;;;11.59;72.04;102085.56;5071472;28;20411;-79
2022/10/31 07:12:36;;;;;;;0.10;0.10;;;;;;;11.62;72.40;102082.88;5063870;28;20500;-77
2022/10/31 07:15:02;;;;;;;2.28;0.85;;;;;;;11.67;72.01;102084.63;5071744;28;20036;-79
2022/10/31 07:17:28;;;;;;;0.10;0.10;;;;;;;11.70;72.19;102084.59;5073546;28;20036;-79
2022/10/31 07:19:54;;;;;;;0.10;0.10;;;;;;;11.76;72.62;102089.88;5058428;28;20044;-79
2022/10/31 07:22:20;;;;;;;0.15;0.15;;;;;;;11.80;72.59;102097.84;5063533;28;20025;-79
2022/10/31 07:24:46;;;;;;;0.10;0.10;;;;;;;11.86;72.75;102091.59;5072374;28;20047;-78
2022/10/31 07:27:12;;;;;;;0.60;0.60;;;;;;;11.92;73.03;102080.06;5068238;28;20071;-80
2022/10/31 07:29:38;;;;;;;0.10;0.10;;;;;;;11.95;72.88;102078.28;5071326;28;20058;-78
2022/10/31 07:32:04;;;;;;;0.10;0.10;;;;;;;12.07;72.78;102080.00;5070999;28;20078;-81
2022/10/31 07:34:30;;;;;;;0.30;0.30;;;;;;;12.15;73.07;102085.28;5072290;28;20024;-79
2022/10/31 07:36:56;;;;;;;0.10;0.10;;;;;;;12.23;73.18;102086.09;5058934;28;20097;-79
2022/10/31 07:39:23;;;;;;;0.10;0.10;;;;;;;12.33;73.59;102091.38;5072976;28;20036;-79
2022/10/31 07:41:49;;;;;;;0.08;0.08;;;;;;;12.40;73.80;102080.66;5070558;28;20036;-79
2022/10/31 07:44:15;;;;;;;16.85;0.82;;;;;;;12.48;73.56;102085.06;5070511;28;20506;-79
2022/10/31 07:46:41;;;;;;;0.10;0.10;;;;;;;12.52;73.32;102087.66;5071974;28;20031;-79
2022/10/31 07:49:07;;;;;;;0.10;0.10;;;;;;;12.57;73.74;102088.53;5055500;28;20051;-81
2022/10/31 07:51:33;;;;;;;0.10;0.10;;;;;;;12.61;73.43;102084.94;5066380;28;20377;-79
2022/10/31 07:53:59;;;;;;;0.10;0.10;;;;;;;12.65;73.06;102088.44;5064809;28;20035;-79
2022/10/31 07:56:25;;;;;;;0.10;0.10;;;;;;;12.68;73.17;102083.09;5072829;28;20376;-79
2022/10/31 07:58:51;;;;;;;0.10;0.10;;;;;;;12.73;73.33;102096.34;5070876;28;20040;-79
2022/10/31 08:01:17;;;;;;;0.10;0.10;;;;;;;12.74;73.18;102096.31;5073046;28;20204;-79
2022/10/31 08:03:43;;;;;;;0.65;0.65;;;;;;;12.76;72.92;102096.31;5075548;28;20040;-79
2022/10/31 08:06:09;;;;;;;0.10;0.10;;;;;;;12.76;73.32;102097.22;5060783;28;20044;-79
2022/10/31 08:08:35;;;;;;;0.10;0.10;;;;;;;12.77;72.87;102096.31;5067240;28;20054;-79
2022/10/31 08:11:01;;;;;;;0.10;0.10;;;;;;;12.77;72.97;102087.44;5073543;28;20119;-79
2022/10/31 08:13:28;;;;;;;0.10;0.10;;;;;;;12.78;73.05;102090.09;5071642;28;20024;-79
2022/10/31 08:15:55;;;;;;;0.10;0.10;;;;;;;12.80;73.54;102087.44;5069940;28;20037;-79
2022/10/31 08:18:23;;;;;;;0.10;0.10;;;;;;;12.84;73.00;102083.84;5076631;28;20024;-79
2022/10/31 08:20:49;;;;;;;0.82;0.82;;;;;;;12.88;72.91;102076.72;5074183;28;20020;-79
2022/10/31 08:23:16;;;;;;;0.10;0.10;;;;;;;12.93;73.40;102074.88;5070852;28;20492;-79
2022/10/31 08:25:42;;;;;;;0.10;0.10;;;;;;;12.97;73.63;102075.72;5071193;28;20029;-79
2022/10/31 08:28:10;;;;;;;0.10;0.10;;;;;;;13.02;73.38;102080.13;5065054;28;20029;-79
2022/10/31 08:30:37;;;;;;;0.47;0.40;;;;;;;13.06;73.28;102076.53;5070848;28;20033;-79
2022/10/31 08:35:43;;;;;;;0.35;0.35;;;;;;;13.15;73.50;102078.19;5089088;27;20386;-79
2022/10/31 08:38:11;;;;;;;1.25;1.00;;;;;;;13.19;74.10;102079.06;5103723;28;20032;-80
2022/10/31 08:40:38;;;;;;;0.10;0.10;;;;;;;13.25;73.29;102071.00;5091503;27;20404;-80
2022/10/31 08:43:10;;;;;;;0.10;0.10;;;;;;;13.32;73.56;102074.47;5089315;28;20491;-80
2022/10/31 08:45:36;;;;;;;0.15;0.15;;;;;;;13.37;73.59;102070.88;5105207;28;20030;-80
2022/10/31 08:48:07;;;;;;;0.17;0.17;;;;;;;13.45;73.58;102070.78;5092038;28;20505;-80
2022/10/31 08:50:35;;;;;;;0.20;0.20;;;;;;;13.52;73.74;102067.16;5089708;28;20470;-80
2022/10/31 08:53:04;;;;;;;0.10;0.10;;;;;;;13.62;73.68;102067.94;5104137;28;20085;-80
2022/10/31 08:55:30;;;;;;;0.10;0.10;;;;;;;13.69;73.54;102064.25;5089848;28;20061;-80
2022/10/31 08:57:57;;;;;;;0.10;0.10;;;;;;;13.79;73.44;102059.69;5091303;28;20032;-80
2022/10/31 09:00:24;;;;;;;0.10;0.10;;;;;;;13.89;73.54;102049.78;5103982;28;20032;-80
2022/10/31 09:02:58;;;;;;;0.10;0.10;;;;;;;14.03;73.52;102050.47;5090667;28;20499;-80
2022/10/31 09:05:25;;;;;;;0.10;0.10;;;;;;;14.08;73.65;102050.38;5075878;28;20100;-80
2022/10/31 09:07:55;;;;;;;0.13;0.13;;;;;;;14.16;73.56;102048.50;5091202;28;20024;-80
2022/10/31 09:10:21;;;;;;;0.68;0.68;;;;;;;14.26;74.18;102037.69;5087201;28;20024;-80
2022/10/31 09:12:47;;;;;;;0.00;0.00;;;;;;;14.33;74.21;102040.22;5089508;28;20042;-80
2022/10/31 09:15:13;;;;;;;0.95;0.95;;;;;;;14.43;73.91;102035.63;5086952;28;20028;-80
2022/10/31 09:17:39;;;;;;;0.10;0.10;;;;;;;14.55;73.53;102031.84;5092243;28;20039;-80
2022/10/31 09:20:05;;;;;;;0.03;0.03;;;;;;;14.67;73.36;102017.47;5093163;28;20112;-80
2022/10/31 09:22:31;;;;;;;0.10;0.10;;;;;;;14.82;73.58;102022.50;5089282;28;20032;-80
2022/10/31 09:24:57;;;;;;;0.85;0.55;;;;;;;14.92;73.63;102022.34;5091182;28;20028;-80
2022/10/31 09:27:23;;;;;;;0.10;0.10;;;;;;;14.97;74.21;102015.97;5092614;28;20039;-80
2022/10/31 09:29:49;;;;;;;0.30;0.30;;;;;;;15.06;73.54;102014.91;5091259;28;20055;-80
2022/10/31 09:32:15;;;;;;;0.40;0.40;;;;;;;15.15;73.77;102008.50;5091339;28;20039;-80
2022/10/31 09:34:41;;;;;;;0.20;0.20;;;;;;;15.22;73.74;102009.28;5089179;28;20036;-80
2022/10/31 09:37:07;;;;;;;0.15;0.15;;;;;;;15.28;73.46;101998.47;5089815;28;20048;-80
2022/10/31 09:39:33;;;;;;;0.20;0.20;;;;;;;15.33;73.42;101993.91;5091631;28;20032;-80
2022/10/31 09:48:21;;;;;;;0.57;0.57;;;;;;;15.71;73.21;101983.28;5099053;27;20400;-80
2022/10/31 09:50:53;;;;;;;0.47;0.47;;;;;;;15.75;73.34;101988.53;5083670;28;20033;-80
2022/10/31 09:53:29;;;;;;;1.35;1.17;;;;;;;15.84;73.19;101987.47;5081866;28;20028;-79
2022/10/31 09:55:56;;;;;;;0.57;0.57;;;;;;;15.91;73.34;101982.84;5083514;28;20514;-80
2022/10/31 09:58:27;;;;;;;1.52;1.42;;;;;;;16.01;73.27;101982.59;5080689;28;20506;-80
2022/10/31 10:00:58;;;;;;;1.55;1.50;;;;;;;16.13;73.33;101986.72;5091405;28;20048;-79
2022/10/31 10:06:24;;;;;;;0.32;0.32;;;;;;;16.29;72.92;101978.34;5086633;28;20397;-80
2022/10/31 10:08:50;;;;;;;0.10;0.10;;;;;;;16.36;72.86;101982.59;5067411;28;20044;-79
2022/10/31 10:14:45;;;;;;;0.20;0.20;;;;;;;16.56;73.05;101970.47;5058396;28;20424;-79
2022/10/31 10:23:06;;;;;;;0.13;0.13;;;;;;;16.75;72.61;101952.16;5077126;27;20774;-79
2022/10/31 10:25:39;;;;;;;0.93;0.68;;;;;;;16.84;72.65;101951.00;5077918;28;20036;-80
2022/10/31 10:31:01;;;;;;;0.20;0.20;;;;;;;16.94;72.25;101949.84;5114847;27;20370;-81
2022/10/31 10:33:57;;;;;;;0.10;0.10;;;;;;;17.05;72.04;101936.16;5086732;28;20503;-79
2022/10/31 10:36:44;;;;;;;0.75;0.75;;;;;;;17.09;72.26;101924.41;5077177;28;20494;-79
2022/10/31 10:47:38;;;;;;;0.20;0.20;;;;;;;17.37;72.35;101904.81;5086085;28;20118;-79
2022/10/31 10:50:27;;;;;;;0.47;0.47;;;;;;;17.38;71.75;101899.38;5075946;28;20052;-79
2022/10/31 10:53:31;;;;;;;0.25;0.25;;;;;;;17.38;71.34;101902.06;5077614;28;20032;-79
2022/10/31 10:56:24;;;;;;;0.80;0.80;;;;;;;17.39;71.33;101902.97;5081806;28;20029;-79
2022/10/31 10:58:50;;;;;;;0.73;0.73;;;;;;;17.32;71.44;101906.75;5074474;28;20025;-79
2022/10/31 11:01:16;;;;;;;0.10;0.10;;;;;;;17.32;71.54;101896.03;5075525;28;20037;-80
2022/10/31 11:03:42;;;;;;;0.40;0.40;;;;;;;17.36;71.64;101892.31;5077254;28;20470;-80
2022/10/31 11:06:25;;;;;;;0.28;0.28;;;;;;;17.45;71.47;101884.88;5082775;28;20372;-80
2022/10/31 11:08:52;;;;;;;0.73;0.73;;;;;;;17.44;71.61;101879.59;5082016;28;20024;-79
2022/10/31 11:14:04;;;;;;;0.47;0.40;;;;;;;17.59;71.33;101883.56;5098791;27;20621;-79
2022/10/31 11:16:35;;;;;;;0.32;0.32;;;;;;;17.70;71.40;101886.75;5090572;28;20036;-80
2022/10/31 11:19:22;;;;;;;0.73;0.73;;;;;;;17.85;71.33;101889.88;5089880;28;20025;-79
2022/10/31 11:21:49;;;;;;;2.85;1.30;;;;;;;17.88;71.18;101887.97;5089540;28;20029;-79
2022/10/31 11:24:18;;;;;;;0.40;0.40;;;;;;;17.99;71.11;101881.38;5091527;28;20028;-79
2022/10/31 11:26:46;;;;;;;2.10;0.52;;;;;;;18.04;71.08;101869.53;5090074;28;20059;-80
2022/10/31 11:29:24;;;;;;;0.25;0.25;;;;;;;18.11;70.71;101859.50;5086476;28;20534;-79
2022/10/31 11:31:53;;;;;;;1.55;1.35;;;;;;;18.10;70.55;101853.22;5089546;28;20983;-79
2022/10/31 11:39:54;;;;;;;0.30;0.30;;;;;;;18.18;70.61;101839.56;5106704;27;20404;-79
2022/10/31 11:42:25;;;;;;;1.45;1.35;;;;;;;18.19;70.19;101835.94;5106792;28;20039;-79
2022/10/31 11:44:53;;;;;;;2.50;1.15;;;;;;;18.22;70.40;101825.13;5089645;28;20027;-79
2022/10/31 11:47:28;;;;;;;0.73;0.73;;;;;;;18.27;70.35;101819.59;5095876;28;20031;-80
2022/10/31 11:49:56;;;;;;;0.10;0.10;;;;;;;18.29;70.16;101823.06;5088285;28;20063;-79
2022/10/31 11:52:27;;;;;;;0.20;0.20;;;;;;;18.32;70.28;101814.91;5100588;28;20629;-79
2022/10/31 11:57:43;;;;;;;0.10;0.10;;;;;;;18.37;70.10;101812.06;5081379;27;20375;-79
2022/10/31 12:06:04;;;;;;;0.20;0.20;;;;;;;18.51;70.02;101807.03;5088118;27;1187881;-80
2022/10/31 12:08:31;;;;;;;;;;;;;;;18.64;69.76;101795.84;5109903;28;20111;-80
2022/10/31 12:14:01;;;;;;;0.40;0.40;;;;;;;18.69;69.99;101783.13;4980872;28;20393;-79
2022/10/31 12:16:40;;;;;;;0.32;0.32;;;;;;;18.71;70.07;101776.75;4960878;28;20037;-78
2022/10/31 12:22:04;;;;;;;0.13;0.13;;;;;;;18.84;69.99;101762.84;5097115;27;20390;-80
2022/10/31 12:27:40;;;;;;;0.25;0.25;;;;;;;18.89;69.63;101744.72;5088203;28;20380;-80
2022/10/31 12:30:28;;;;;;;0.45;0.45;;;;;;;18.95;69.39;101732.91;5085442;28;20043;-80
2022/10/31 12:33:21;;;;;;;0.10;0.10;;;;;;;18.96;69.24;101730.16;5078842;28;20392;-80
2022/10/31 12:36:07;;;;;;;;;;;;;;;19.05;68.84;101719.03;5080151;28;20028;-80
2022/10/31 12:39:02;;;;;;;0.50;0.50;;;;;;;19.00;68.64;101715.66;5074104;28;19924;-79
2022/10/31 12:41:45;;;;;;;3.55;0.80;;;;;;;19.01;68.92;101706.66;5083412;28;20028;-80
2022/10/31 12:44:43;;;;;;;0.57;0.57;;;;;;;19.04;69.04;101695.81;5070328;28;20052;-80
2022/10/31 12:53:23;;;;;;;2.47;1.40;;;;;;;19.13;68.74;101662.31;5103386;27;20431;-78
2022/10/31 12:58:40;;;;;;;0.73;0.73;;;;;;;19.11;68.77;101653.44;5081532;28;20376;-80
2022/10/31 13:01:19;;;;;;;0.30;0.30;;;;;;;19.10;68.94;101653.50;5065907;28;20134;-80